sensor_id;sensor_type;location;lat;lon;timestamp;temperature;humidity
72338;DHT22;60294;64.134;-21.862;2022-12-18T00:01:36;-3273.20;74.00
72338;DHT22;60294;64.134;-21.862;2022-12-18T00:04:07;-3273.20;73.20
72338;DHT22;60294;64.134;-21.862;2022-12-18T00:06:34;-3273.20;72.90
72338;DHT22;60294;64.134;-21.862;2022-12-18T00:09:01;-3273.20;72.20
72338;DHT22;60294;64.134;-21.862;2022-12-18T00:11:30;-3273.20;72.30
72338;DHT22;60294;64.134;-21.862;2022-12-18T00:13:57;-3273.20;72.70
72338;DHT22;60294;64.134;-21.862;2022-12-18T00:16:25;-3273.20;72.60
72338;DHT22;60294;64.134;-21.862;2022-12-18T00:18:53;-3273.20;72.50
72338;DHT22;60294;64.134;-21.862;2022-12-18T00:21:21;-3273.20;72.10
72338;DHT22;60294;64.134;-21.862;2022-12-18T00:23:48;-3273.20;71.10
72338;DHT22;60294;64.134;-21.862;2022-12-18T00:26:17;-3273.30;71.80
72338;DHT22;60294;64.134;-21.862;2022-12-18T00:28:44;-3273.30;71.60
72338;DHT22;60294;64.134;-21.862;2022-12-18T00:31:12;-3273.30;71.80
72338;DHT22;60294;64.134;-21.862;2022-12-18T00:33:38;-3273.20;71.60
72338;DHT22;60294;64.134;-21.862;2022-12-18T00:36:10;-3273.20;71.40
72338;DHT22;60294;64.134;-21.862;2022-12-18T00:38:36;-3273.30;71.30
72338;DHT22;60294;64.134;-21.862;2022-12-18T00:41:03;-3273.20;71.60
72338;DHT22;60294;64.134;-21.862;2022-12-18T00:43:29;-3273.20;71.10
72338;DHT22;60294;64.134;-21.862;2022-12-18T00:45:55;-3273.20;70.40
72338;DHT22;60294;64.134;-21.862;2022-12-18T00:48:21;-3273.20;70.50
72338;DHT22;60294;64.134;-21.862;2022-12-18T00:50:50;-3273.20;70.60
72338;DHT22;60294;64.134;-21.862;2022-12-18T00:53:17;-3273.20;71.00
72338;DHT22;60294;64.134;-21.862;2022-12-18T00:55:43;-3273.20;71.70
72338;DHT22;60294;64.134;-21.862;2022-12-18T00:58:10;-3273.10;72.30
72338;DHT22;60294;64.134;-21.862;2022-12-18T01:00:36;-3273.10;72.40
72338;DHT22;60294;64.134;-21.862;2022-12-18T01:03:04;-3273.00;71.50
72338;DHT22;60294;64.134;-21.862;2022-12-18T01:05:30;-3273.00;71.50
72338;DHT22;60294;64.134;-21.862;2022-12-18T01:07:57;-3273.00;70.20
72338;DHT22;60294;64.134;-21.862;2022-12-18T01:10:24;-3273.10;69.20
72338;DHT22;60294;64.134;-21.862;2022-12-18T01:12:50;-3273.20;68.60
72338;DHT22;60294;64.134;-21.862;2022-12-18T01:15:16;-3273.20;67.00
72338;DHT22;60294;64.134;-21.862;2022-12-18T01:17:43;-3273.30;67.00
72338;DHT22;60294;64.134;-21.862;2022-12-18T01:20:12;-3273.30;67.20
72338;DHT22;60294;64.134;-21.862;2022-12-18T01:22:38;-3273.30;67.00
72338;DHT22;60294;64.134;-21.862;2022-12-18T01:25:04;-3273.30;67.20
72338;DHT22;60294;64.134;-21.862;2022-12-18T01:27:32;-3273.30;65.90
72338;DHT22;60294;64.134;-21.862;2022-12-18T01:29:58;-3273.30;66.10
72338;DHT22;60294;64.134;-21.862;2022-12-18T01:32:24;-3273.30;66.10
72338;DHT22;60294;64.134;-21.862;2022-12-18T01:34:50;-3273.30;66.10
72338;DHT22;60294;64.134;-21.862;2022-12-18T01:37:15;-3273.20;66.40
72338;DHT22;60294;64.134;-21.862;2022-12-18T01:39:41;-3273.20;65.60
72338;DHT22;60294;64.134;-21.862;2022-12-18T01:42:15;-3273.20;65.70
72338;DHT22;60294;64.134;-21.862;2022-12-18T01:47:46;-3273.10;64.90
72338;DHT22;60294;64.134;-21.862;2022-12-18T01:50:36;-3273.10;65.40
72338;DHT22;60294;64.134;-21.862;2022-12-18T01:53:05;-3273.10;64.60
72338;DHT22;60294;64.134;-21.862;2022-12-18T01:55:37;-3273.10;64.60
72338;DHT22;60294;64.134;-21.862;2022-12-18T01:58:05;-3273.10;64.10
72338;DHT22;60294;64.134;-21.862;2022-12-18T02:00:31;-3273.00;64.70
72338;DHT22;60294;64.134;-21.862;2022-12-18T02:02:57;-3273.00;64.60
72338;DHT22;60294;64.134;-21.862;2022-12-18T02:08:48;-3273.00;65.20
72338;DHT22;60294;64.134;-21.862;2022-12-18T02:19:06;-3273.00;64.30
72338;DHT22;60294;64.134;-21.862;2022-12-18T02:22:02;-3273.00;65.30
72338;DHT22;60294;64.134;-21.862;2022-12-18T02:24:46;-3273.00;64.90
72338;DHT22;60294;64.134;-21.862;2022-12-18T02:27:14;-3272.90;64.30
72338;DHT22;60294;64.134;-21.862;2022-12-18T02:29:46;-3272.90;63.20
72338;DHT22;60294;64.134;-21.862;2022-12-18T02:32:30;-3272.90;63.60
72338;DHT22;60294;64.134;-21.862;2022-12-18T02:34:58;-3272.90;63.90
72338;DHT22;60294;64.134;-21.862;2022-12-18T02:37:26;-3272.80;63.40
72338;DHT22;60294;64.134;-21.862;2022-12-18T02:39:56;-3272.80;63.80
72338;DHT22;60294;64.134;-21.862;2022-12-18T02:42:28;-3272.80;63.40
72338;DHT22;60294;64.134;-21.862;2022-12-18T02:44:53;-3272.70;63.80
72338;DHT22;60294;64.134;-21.862;2022-12-18T02:47:22;-3272.70;64.40
72338;DHT22;60294;64.134;-21.862;2022-12-18T03:03:18;-3272.50;65.10
72338;DHT22;60294;64.134;-21.862;2022-12-18T03:05:59;-3272.40;65.90
72338;DHT22;60294;64.134;-21.862;2022-12-18T03:08:28;-3272.40;65.80
72338;DHT22;60294;64.134;-21.862;2022-12-18T03:11:00;-3272.40;65.30
72338;DHT22;60294;64.134;-21.862;2022-12-18T03:13:40;-3272.30;64.80
72338;DHT22;60294;64.134;-21.862;2022-12-18T03:16:12;-3272.40;64.70
72338;DHT22;60294;64.134;-21.862;2022-12-18T03:21:22;-3272.40;64.00
72338;DHT22;60294;64.134;-21.862;2022-12-18T03:23:50;-3272.40;63.60
72338;DHT22;60294;64.134;-21.862;2022-12-18T03:26:20;-3272.40;63.10
72338;DHT22;60294;64.134;-21.862;2022-12-18T03:29:01;-3272.40;64.00
72338;DHT22;60294;64.134;-21.862;2022-12-18T03:31:29;-3272.30;64.40
72338;DHT22;60294;64.134;-21.862;2022-12-18T03:33:59;-3272.30;64.20
72338;DHT22;60294;64.134;-21.862;2022-12-18T03:36:26;-3272.30;64.30
72338;DHT22;60294;64.134;-21.862;2022-12-18T03:38:53;-3272.20;64.60
72338;DHT22;60294;64.134;-21.862;2022-12-18T03:44:19;-3272.20;64.70
72338;DHT22;60294;64.134;-21.862;2022-12-18T03:49:25;-3272.20;63.20
72338;DHT22;60294;64.134;-21.862;2022-12-18T03:54:24;-3272.20;63.70
72338;DHT22;60294;64.134;-21.862;2022-12-18T03:56:58;-3272.10;64.40
72338;DHT22;60294;64.134;-21.862;2022-12-18T03:59:26;-3272.00;65.10
72338;DHT22;60294;64.134;-21.862;2022-12-18T04:01:54;-3272.00;66.00
72338;DHT22;60294;64.134;-21.862;2022-12-18T04:04:21;-3272.00;66.10
72338;DHT22;60294;64.134;-21.862;2022-12-18T04:06:49;-3271.90;66.70
72338;DHT22;60294;64.134;-21.862;2022-12-18T04:09:15;-3271.90;66.90
72338;DHT22;60294;64.134;-21.862;2022-12-18T04:11:42;-3271.90;66.60
72338;DHT22;60294;64.134;-21.862;2022-12-18T04:14:11;-3271.90;66.50
72338;DHT22;60294;64.134;-21.862;2022-12-18T04:16:37;-3271.80;66.00
72338;DHT22;60294;64.134;-21.862;2022-12-18T04:19:03;-3271.80;65.50
72338;DHT22;60294;64.134;-21.862;2022-12-18T04:21:29;-3271.80;65.30
72338;DHT22;60294;64.134;-21.862;2022-12-18T04:23:55;-3271.80;65.00
72338;DHT22;60294;64.134;-21.862;2022-12-18T04:26:21;-3271.80;64.50
72338;DHT22;60294;64.134;-21.862;2022-12-18T04:28:47;-3271.80;64.90
72338;DHT22;60294;64.134;-21.862;2022-12-18T04:31:13;-3271.70;65.50
72338;DHT22;60294;64.134;-21.862;2022-12-18T04:33:39;-3271.60;65.90
72338;DHT22;60294;64.134;-21.862;2022-12-18T04:36:05;-3271.50;66.00
72338;DHT22;60294;64.134;-21.862;2022-12-18T04:38:31;-3271.50;66.00
72338;DHT22;60294;64.134;-21.862;2022-12-18T04:40:57;-3271.40;66.40
72338;DHT22;60294;64.134;-21.862;2022-12-18T04:43:22;-3271.30;66.50
72338;DHT22;60294;64.134;-21.862;2022-12-18T04:45:48;-3271.30;66.70
72338;DHT22;60294;64.134;-21.862;2022-12-18T04:48:14;-3271.20;66.90
72338;DHT22;60294;64.134;-21.862;2022-12-18T04:50:40;-3271.10;67.00
72338;DHT22;60294;64.134;-21.862;2022-12-18T04:53:05;-3271.00;67.20
72338;DHT22;60294;64.134;-21.862;2022-12-18T04:55:31;-3271.00;67.70
72338;DHT22;60294;64.134;-21.862;2022-12-18T04:57:57;-3270.90;67.70
72338;DHT22;60294;64.134;-21.862;2022-12-18T05:00:23;-3270.90;67.80
72338;DHT22;60294;64.134;-21.862;2022-12-18T05:02:49;-3271.00;68.00
72338;DHT22;60294;64.134;-21.862;2022-12-18T05:05:14;-3271.00;67.70
72338;DHT22;60294;64.134;-21.862;2022-12-18T05:07:42;-3271.00;67.40
72338;DHT22;60294;64.134;-21.862;2022-12-18T05:10:08;-3271.00;67.40
72338;DHT22;60294;64.134;-21.862;2022-12-18T05:12:34;-3271.00;67.50
72338;DHT22;60294;64.134;-21.862;2022-12-18T05:15:20;-3271.00;67.30
72338;DHT22;60294;64.134;-21.862;2022-12-18T05:17:45;-3271.00;67.40
72338;DHT22;60294;64.134;-21.862;2022-12-18T05:20:11;-3271.00;67.30
72338;DHT22;60294;64.134;-21.862;2022-12-18T05:22:37;-3271.00;67.10
72338;DHT22;60294;64.134;-21.862;2022-12-18T05:25:03;-3271.00;67.30
72338;DHT22;60294;64.134;-21.862;2022-12-18T05:27:29;-3271.00;67.10
72338;DHT22;60294;64.134;-21.862;2022-12-18T05:29:55;-3271.00;67.10
72338;DHT22;60294;64.134;-21.862;2022-12-18T05:32:21;-3271.00;67.10
72338;DHT22;60294;64.134;-21.862;2022-12-18T05:34:47;-3271.00;67.10
72338;DHT22;60294;64.134;-21.862;2022-12-18T05:37:13;-3271.00;67.10
72338;DHT22;60294;64.134;-21.862;2022-12-18T05:39:38;-3270.90;67.00
72338;DHT22;60294;64.134;-21.862;2022-12-18T05:42:04;-3270.90;67.10
72338;DHT22;60294;64.134;-21.862;2022-12-18T05:44:30;-3270.90;67.10
72338;DHT22;60294;64.134;-21.862;2022-12-18T05:46:56;-3270.90;67.20
72338;DHT22;60294;64.134;-21.862;2022-12-18T05:49:22;-3270.90;67.00
72338;DHT22;60294;64.134;-21.862;2022-12-18T05:51:47;-3270.90;66.70
72338;DHT22;60294;64.134;-21.862;2022-12-18T05:54:13;-3271.00;66.70
72338;DHT22;60294;64.134;-21.862;2022-12-18T05:56:39;-3271.00;66.60
72338;DHT22;60294;64.134;-21.862;2022-12-18T05:59:05;-3270.90;67.30
72338;DHT22;60294;64.134;-21.862;2022-12-18T06:01:31;-3271.00;67.40
72338;DHT22;60294;64.134;-21.862;2022-12-18T06:03:56;-3271.00;67.00
72338;DHT22;60294;64.134;-21.862;2022-12-18T06:06:25;-3271.10;66.90
72338;DHT22;60294;64.134;-21.862;2022-12-18T06:08:52;-3271.10;66.80
72338;DHT22;60294;64.134;-21.862;2022-12-18T06:11:22;-3271.20;67.20
72338;DHT22;60294;64.134;-21.862;2022-12-18T06:13:55;-3271.10;67.20
72338;DHT22;60294;64.134;-21.862;2022-12-18T06:16:21;-3271.00;67.00
72338;DHT22;60294;64.134;-21.862;2022-12-18T06:18:47;-3271.00;67.40
72338;DHT22;60294;64.134;-21.862;2022-12-18T06:21:12;-3271.00;67.50
72338;DHT22;60294;64.134;-21.862;2022-12-18T06:23:38;-3271.00;67.30
72338;DHT22;60294;64.134;-21.862;2022-12-18T06:26:09;-3270.90;67.50
72338;DHT22;60294;64.134;-21.862;2022-12-18T06:28:36;-3270.90;67.90
72338;DHT22;60294;64.134;-21.862;2022-12-18T06:31:05;-3270.90;68.60
72338;DHT22;60294;64.134;-21.862;2022-12-18T06:33:31;-3270.80;68.30
72338;DHT22;60294;64.134;-21.862;2022-12-18T06:36:03;-3270.80;68.50
72338;DHT22;60294;64.134;-21.862;2022-12-18T06:38:32;-3271.00;68.20
72338;DHT22;60294;64.134;-21.862;2022-12-18T06:40:58;-3271.00;68.00
72338;DHT22;60294;64.134;-21.862;2022-12-18T06:43:24;-3271.10;67.40
72338;DHT22;60294;64.134;-21.862;2022-12-18T06:45:50;-3271.10;67.60
72338;DHT22;60294;64.134;-21.862;2022-12-18T06:48:21;-3271.00;68.10
72338;DHT22;60294;64.134;-21.862;2022-12-18T06:50:47;-3271.00;68.20
72338;DHT22;60294;64.134;-21.862;2022-12-18T06:53:13;-3271.00;68.50
72338;DHT22;60294;64.134;-21.862;2022-12-18T06:55:39;-3270.90;68.20
72338;DHT22;60294;64.134;-21.862;2022-12-18T06:58:05;-3271.00;68.50
72338;DHT22;60294;64.134;-21.862;2022-12-18T07:00:30;-3271.00;68.50
72338;DHT22;60294;64.134;-21.862;2022-12-18T07:02:56;-3271.10;68.50
72338;DHT22;60294;64.134;-21.862;2022-12-18T07:05:22;-3271.10;68.50
72338;DHT22;60294;64.134;-21.862;2022-12-18T07:07:48;-3271.20;68.10
72338;DHT22;60294;64.134;-21.862;2022-12-18T07:10:14;-3271.20;68.20
72338;DHT22;60294;64.134;-21.862;2022-12-18T07:12:40;-3271.20;68.00
72338;DHT22;60294;64.134;-21.862;2022-12-18T07:15:08;-3271.20;67.80
72338;DHT22;60294;64.134;-21.862;2022-12-18T07:17:34;-3271.30;67.70
72338;DHT22;60294;64.134;-21.862;2022-12-18T07:20:00;-3271.40;67.30
72338;DHT22;60294;64.134;-21.862;2022-12-18T07:22:26;-3271.40;66.70
72338;DHT22;60294;64.134;-21.862;2022-12-18T07:24:52;-3271.40;67.00
72338;DHT22;60294;64.134;-21.862;2022-12-18T07:27:18;-3271.50;67.10
72338;DHT22;60294;64.134;-21.862;2022-12-18T07:29:44;-3271.50;67.30
72338;DHT22;60294;64.134;-21.862;2022-12-18T07:32:10;-3271.50;67.20
72338;DHT22;60294;64.134;-21.862;2022-12-18T07:34:36;-3271.50;67.20
72338;DHT22;60294;64.134;-21.862;2022-12-18T07:37:02;-3271.40;66.80
72338;DHT22;60294;64.134;-21.862;2022-12-18T07:39:27;-3271.50;66.70
72338;DHT22;60294;64.134;-21.862;2022-12-18T07:41:53;-3271.50;66.70
72338;DHT22;60294;64.134;-21.862;2022-12-18T07:44:38;-3271.40;66.60
72338;DHT22;60294;64.134;-21.862;2022-12-18T07:47:04;-3271.40;67.30
72338;DHT22;60294;64.134;-21.862;2022-12-18T07:49:30;-3271.40;67.10
72338;DHT22;60294;64.134;-21.862;2022-12-18T07:51:56;-3271.30;67.20
72338;DHT22;60294;64.134;-21.862;2022-12-18T07:54:23;-3271.30;67.10
72338;DHT22;60294;64.134;-21.862;2022-12-18T07:56:50;-3271.30;67.50
72338;DHT22;60294;64.134;-21.862;2022-12-18T07:59:16;-3271.20;67.30
72338;DHT22;60294;64.134;-21.862;2022-12-18T08:01:42;-3271.10;67.70
72338;DHT22;60294;64.134;-21.862;2022-12-18T08:04:09;-3271.00;67.70
72338;DHT22;60294;64.134;-21.862;2022-12-18T08:06:35;-3271.00;67.80
72338;DHT22;60294;64.134;-21.862;2022-12-18T08:09:01;-3271.00;68.10
72338;DHT22;60294;64.134;-21.862;2022-12-18T08:11:27;-3270.90;68.20
72338;DHT22;60294;64.134;-21.862;2022-12-18T08:13:54;-3270.80;68.00
72338;DHT22;60294;64.134;-21.862;2022-12-18T08:16:21;-3270.70;68.20
72338;DHT22;60294;64.134;-21.862;2022-12-18T08:18:47;-3270.70;68.50
72338;DHT22;60294;64.134;-21.862;2022-12-18T08:21:19;-3270.60;68.40
72338;DHT22;60294;64.134;-21.862;2022-12-18T08:23:49;-3270.60;68.40
72338;DHT22;60294;64.134;-21.862;2022-12-18T08:26:16;-3270.50;68.70
72338;DHT22;60294;64.134;-21.862;2022-12-18T08:28:42;-3270.40;68.40
72338;DHT22;60294;64.134;-21.862;2022-12-18T08:31:09;-3270.40;68.80
72338;DHT22;60294;64.134;-21.862;2022-12-18T08:33:36;-3270.40;69.00
72338;DHT22;60294;64.134;-21.862;2022-12-18T08:36:03;-3270.40;68.90
72338;DHT22;60294;64.134;-21.862;2022-12-18T08:38:31;-3270.30;69.10
72338;DHT22;60294;64.134;-21.862;2022-12-18T08:41:04;-3270.30;69.30
72338;DHT22;60294;64.134;-21.862;2022-12-18T08:43:30;-3270.30;69.20
72338;DHT22;60294;64.134;-21.862;2022-12-18T08:46:14;-3270.30;69.00
72338;DHT22;60294;64.134;-21.862;2022-12-18T08:48:40;-3270.30;68.50
72338;DHT22;60294;64.134;-21.862;2022-12-18T08:51:06;-3270.30;68.80
72338;DHT22;60294;64.134;-21.862;2022-12-18T08:53:32;-3270.30;68.80
72338;DHT22;60294;64.134;-21.862;2022-12-18T08:55:58;-3270.30;68.90
72338;DHT22;60294;64.134;-21.862;2022-12-18T08:58:24;-3270.20;68.90
72338;DHT22;60294;64.134;-21.862;2022-12-18T09:00:49;-3270.20;69.20
72338;DHT22;60294;64.134;-21.862;2022-12-18T09:03:18;-3270.20;69.30
72338;DHT22;60294;64.134;-21.862;2022-12-18T09:05:48;-3270.20;69.40
72338;DHT22;60294;64.134;-21.862;2022-12-18T09:08:14;-3270.10;69.30
72338;DHT22;60294;64.134;-21.862;2022-12-18T09:10:46;-3270.10;69.70
72338;DHT22;60294;64.134;-21.862;2022-12-18T09:13:14;-3270.10;69.40
72338;DHT22;60294;64.134;-21.862;2022-12-18T09:15:51;-3270.10;69.20
72338;DHT22;60294;64.134;-21.862;2022-12-18T09:18:19;-3270.10;68.70
72338;DHT22;60294;64.134;-21.862;2022-12-18T09:20:45;-3270.10;68.90
72338;DHT22;60294;64.134;-21.862;2022-12-18T09:23:12;-3270.20;68.90
72338;DHT22;60294;64.134;-21.862;2022-12-18T09:25:38;-3270.20;68.60
72338;DHT22;60294;64.134;-21.862;2022-12-18T09:28:06;-3270.10;68.80
72338;DHT22;60294;64.134;-21.862;2022-12-18T09:30:32;-3270.20;69.10
72338;DHT22;60294;64.134;-21.862;2022-12-18T09:33:00;-3270.10;69.20
72338;DHT22;60294;64.134;-21.862;2022-12-18T09:35:27;-3270.10;69.40
72338;DHT22;60294;64.134;-21.862;2022-12-18T09:37:53;-3270.20;69.60
72338;DHT22;60294;64.134;-21.862;2022-12-18T09:40:22;-3270.10;69.80
72338;DHT22;60294;64.134;-21.862;2022-12-18T09:42:53;-3270.10;69.90
72338;DHT22;60294;64.134;-21.862;2022-12-18T09:45:21;-3270.20;69.70
72338;DHT22;60294;64.134;-21.862;2022-12-18T09:47:48;-3270.10;69.80
72338;DHT22;60294;64.134;-21.862;2022-12-18T09:50:23;-3270.10;69.60
72338;DHT22;60294;64.134;-21.862;2022-12-18T09:52:53;-3270.10;69.20
72338;DHT22;60294;64.134;-21.862;2022-12-18T09:55:34;-3270.10;68.50
72338;DHT22;60294;64.134;-21.862;2022-12-18T10:00:35;-3270.10;68.70
72338;DHT22;60294;64.134;-21.862;2022-12-18T10:03:10;-3270.10;68.20
72338;DHT22;60294;64.134;-21.862;2022-12-18T10:08:45;-3270.10;68.10
72338;DHT22;60294;64.134;-21.862;2022-12-18T10:20:27;-3270.10;67.10
72338;DHT22;60294;64.134;-21.862;2022-12-18T10:23:14;-3270.00;66.80
72338;DHT22;60294;64.134;-21.862;2022-12-18T10:26:03;-3270.00;67.10
72338;DHT22;60294;64.134;-21.862;2022-12-18T10:28:31;-3270.00;67.60
72338;DHT22;60294;64.134;-21.862;2022-12-18T10:30:57;-3269.90;67.40
72338;DHT22;60294;64.134;-21.862;2022-12-18T10:33:27;-3269.90;67.70
72338;DHT22;60294;64.134;-21.862;2022-12-18T10:35:54;-3270.00;67.60
72338;DHT22;60294;64.134;-21.862;2022-12-18T10:38:23;-3269.90;67.60
72338;DHT22;60294;64.134;-21.862;2022-12-18T10:41:00;-3269.90;67.40
72338;DHT22;60294;64.134;-21.862;2022-12-18T10:43:46;-3270.00;66.90
72338;DHT22;60294;64.134;-21.862;2022-12-18T10:46:20;-3270.00;66.80
72338;DHT22;60294;64.134;-21.862;2022-12-18T10:51:20;-3270.00;66.60
72338;DHT22;60294;64.134;-21.862;2022-12-18T10:53:59;-3270.00;66.40
72338;DHT22;60294;64.134;-21.862;2022-12-18T10:56:28;-3270.00;66.80
72338;DHT22;60294;64.134;-21.862;2022-12-18T10:59:09;-3269.90;66.40
72338;DHT22;60294;64.134;-21.862;2022-12-18T11:01:56;-3270.00;66.00
72338;DHT22;60294;64.134;-21.862;2022-12-18T11:04:30;-3269.90;66.20
72338;DHT22;60294;64.134;-21.862;2022-12-18T11:07:01;-3269.90;66.40
72338;DHT22;60294;64.134;-21.862;2022-12-18T11:09:39;-3269.90;66.90
72338;DHT22;60294;64.134;-21.862;2022-12-18T11:12:18;-3269.90;66.80
72338;DHT22;60294;64.134;-21.862;2022-12-18T11:14:49;-3269.80;66.70
72338;DHT22;60294;64.134;-21.862;2022-12-18T11:17:31;-3269.90;66.20
72338;DHT22;60294;64.134;-21.862;2022-12-18T11:20:19;-3269.90;66.70
72338;DHT22;60294;64.134;-21.862;2022-12-18T11:22:58;-3269.80;66.80
72338;DHT22;60294;64.134;-21.862;2022-12-18T11:25:25;-3269.70;66.80
72338;DHT22;60294;64.134;-21.862;2022-12-18T11:27:56;-3269.70;66.90
72338;DHT22;60294;64.134;-21.862;2022-12-18T11:30:27;-3269.70;66.60
72338;DHT22;60294;64.134;-21.862;2022-12-18T11:33:07;-3269.60;66.90
72338;DHT22;60294;64.134;-21.862;2022-12-18T11:35:42;-3269.60;67.10
72338;DHT22;60294;64.134;-21.862;2022-12-18T11:38:22;-3269.50;67.00
72338;DHT22;60294;64.134;-21.862;2022-12-18T11:43:55;-3269.50;67.10
72338;DHT22;60294;64.134;-21.862;2022-12-18T11:46:37;-3269.50;67.20
72338;DHT22;60294;64.134;-21.862;2022-12-18T11:51:53;-3269.40;67.60
72338;DHT22;60294;64.134;-21.862;2022-12-18T11:54:21;-3269.30;67.60
72338;DHT22;60294;64.134;-21.862;2022-12-18T11:56:51;-3269.30;67.50
72338;DHT22;60294;64.134;-21.862;2022-12-18T12:02:49;-3269.20;67.70
72338;DHT22;60294;64.134;-21.862;2022-12-18T12:08:21;-3269.20;67.90
72338;DHT22;60294;64.134;-21.862;2022-12-18T12:13:40;-3269.20;67.40
72338;DHT22;60294;64.134;-21.862;2022-12-18T12:16:29;-3269.20;67.50
72338;DHT22;60294;64.134;-21.862;2022-12-18T12:28:19;-3269.20;67.30
72338;DHT22;60294;64.134;-21.862;2022-12-18T12:33:53;-3269.20;67.10
72338;DHT22;60294;64.134;-21.862;2022-12-18T12:36:53;-3269.10;66.80
72338;DHT22;60294;64.134;-21.862;2022-12-18T12:39:26;-3269.20;67.40
72338;DHT22;60294;64.134;-21.862;2022-12-18T12:41:54;-3269.20;67.00
72338;DHT22;60294;64.134;-21.862;2022-12-18T12:44:53;-3269.00;66.60
72338;DHT22;60294;64.134;-21.862;2022-12-18T12:47:28;-3269.10;67.00
72338;DHT22;60294;64.134;-21.862;2022-12-18T12:49:57;-3269.10;66.60
72338;DHT22;60294;64.134;-21.862;2022-12-18T12:52:41;-3269.10;66.50
72338;DHT22;60294;64.134;-21.862;2022-12-18T12:55:18;-3269.10;66.60
72338;DHT22;60294;64.134;-21.862;2022-12-18T13:00:35;-3269.20;66.70
72338;DHT22;60294;64.134;-21.862;2022-12-18T13:08:55;-3269.00;66.30
72338;DHT22;60294;64.134;-21.862;2022-12-18T13:14:32;-3269.00;66.40
72338;DHT22;60294;64.134;-21.862;2022-12-18T13:20:14;-3269.00;66.30
72338;DHT22;60294;64.134;-21.862;2022-12-18T13:22:46;-3268.90;66.40
72338;DHT22;60294;64.134;-21.862;2022-12-18T13:25:34;-3268.90;66.60
72338;DHT22;60294;64.134;-21.862;2022-12-18T13:28:04;-3268.90;66.70
72338;DHT22;60294;64.134;-21.862;2022-12-18T13:35:42;-3268.80;67.20
72338;DHT22;60294;64.134;-21.862;2022-12-18T13:40:59;-3268.90;66.70
72338;DHT22;60294;64.134;-21.862;2022-12-18T13:43:45;-3268.80;66.70
72338;DHT22;60294;64.134;-21.862;2022-12-18T13:51:44;-3268.90;66.00
72338;DHT22;60294;64.134;-21.862;2022-12-18T13:54:34;-3268.90;67.00
72338;DHT22;60294;64.134;-21.862;2022-12-18T13:57:01;-3269.00;66.70
72338;DHT22;60294;64.134;-21.862;2022-12-18T13:59:38;-3269.10;66.60
72338;DHT22;60294;64.134;-21.862;2022-12-18T14:02:21;-3269.50;66.80
72338;DHT22;60294;64.134;-21.862;2022-12-18T14:04:48;-3269.50;65.30
72338;DHT22;60294;64.134;-21.862;2022-12-18T14:07:28;-3269.60;64.30
72338;DHT22;60294;64.134;-21.862;2022-12-18T14:09:56;-3269.80;64.20
72338;DHT22;60294;64.134;-21.862;2022-12-18T14:12:27;-3269.70;63.20
72338;DHT22;60294;64.134;-21.862;2022-12-18T14:15:34;-3269.90;62.80
72338;DHT22;60294;64.134;-21.862;2022-12-18T14:20:43;-3270.30;61.60
72338;DHT22;60294;64.134;-21.862;2022-12-18T14:23:40;-3270.60;61.50
72338;DHT22;60294;64.134;-21.862;2022-12-18T14:26:27;-3270.80;60.10
72338;DHT22;60294;64.134;-21.862;2022-12-18T14:28:57;-3270.70;59.30
72338;DHT22;60294;64.134;-21.862;2022-12-18T14:31:30;-3271.20;60.20
72338;DHT22;60294;64.134;-21.862;2022-12-18T14:33:56;-3271.20;57.70
72338;DHT22;60294;64.134;-21.862;2022-12-18T14:36:27;-3271.70;58.90
72338;DHT22;60294;64.134;-21.862;2022-12-18T14:38:55;-3271.70;56.80
72338;DHT22;60294;64.134;-21.862;2022-12-18T14:41:22;-3272.00;57.20
72338;DHT22;60294;64.134;-21.862;2022-12-18T14:43:50;-3271.80;56.00
72338;DHT22;60294;64.134;-21.862;2022-12-18T14:49:02;-3271.30;57.40
72338;DHT22;60294;64.134;-21.862;2022-12-18T14:51:33;-3271.00;57.80
72338;DHT22;60294;64.134;-21.862;2022-12-18T14:54:17;-3270.50;58.80
72338;DHT22;60294;64.134;-21.862;2022-12-18T14:56:46;-3270.20;59.80
72338;DHT22;60294;64.134;-21.862;2022-12-18T14:59:19;-3270.00;61.20
72338;DHT22;60294;64.134;-21.862;2022-12-18T15:04:41;-3269.60;62.40
72338;DHT22;60294;64.134;-21.862;2022-12-18T15:07:18;-3269.10;63.40
72338;DHT22;60294;64.134;-21.862;2022-12-18T15:10:01;-3269.00;64.00
72338;DHT22;60294;64.134;-21.862;2022-12-18T15:12:35;-3269.00;63.90
72338;DHT22;60294;64.134;-21.862;2022-12-18T15:15:01;-3268.80;64.00
72338;DHT22;60294;64.134;-21.862;2022-12-18T15:17:29;-3268.60;64.70
72338;DHT22;60294;64.134;-21.862;2022-12-18T15:20:07;-3268.50;65.10
72338;DHT22;60294;64.134;-21.862;2022-12-18T15:22:35;-3268.50;65.20
72338;DHT22;60294;64.134;-21.862;2022-12-18T15:25:03;-3268.30;65.50
72338;DHT22;60294;64.134;-21.862;2022-12-18T15:27:47;-3268.20;66.10
72338;DHT22;60294;64.134;-21.862;2022-12-18T15:30:19;-3267.90;67.10
72338;DHT22;60294;64.134;-21.862;2022-12-18T15:32:46;-3267.90;67.20
72338;DHT22;60294;64.134;-21.862;2022-12-18T15:35:18;-3267.80;67.10
72338;DHT22;60294;64.134;-21.862;2022-12-18T15:37:45;-3267.90;67.50
72338;DHT22;60294;64.134;-21.862;2022-12-18T15:40:17;-3267.80;67.60
72338;DHT22;60294;64.134;-21.862;2022-12-18T15:42:44;-3267.70;67.50
72338;DHT22;60294;64.134;-21.862;2022-12-18T15:45:29;-3267.70;68.00
72338;DHT22;60294;64.134;-21.862;2022-12-18T15:47:56;-3267.60;68.00
72338;DHT22;60294;64.134;-21.862;2022-12-18T15:50:22;-3267.50;68.20
72338;DHT22;60294;64.134;-21.862;2022-12-18T15:52:51;-3267.50;68.40
72338;DHT22;60294;64.134;-21.862;2022-12-18T15:55:20;-3267.40;68.50
72338;DHT22;60294;64.134;-21.862;2022-12-18T15:58:05;-3267.40;68.70
72338;DHT22;60294;64.134;-21.862;2022-12-18T16:00:35;-3267.50;69.00
72338;DHT22;60294;64.134;-21.862;2022-12-18T16:03:02;-3267.50;68.50
72338;DHT22;60294;64.134;-21.862;2022-12-18T16:05:29;-3267.50;67.70
72338;DHT22;60294;64.134;-21.862;2022-12-18T16:07:55;-3267.50;67.70
72338;DHT22;60294;64.134;-21.862;2022-12-18T16:10:21;-3267.50;67.30
72338;DHT22;60294;64.134;-21.862;2022-12-18T16:12:47;-3267.60;66.80
72338;DHT22;60294;64.134;-21.862;2022-12-18T16:15:14;-3267.60;66.10
72338;DHT22;60294;64.134;-21.862;2022-12-18T16:17:44;-3267.60;65.60
72338;DHT22;60294;64.134;-21.862;2022-12-18T16:20:16;-3267.50;66.10
72338;DHT22;60294;64.134;-21.862;2022-12-18T16:22:43;-3267.20;67.10
72338;DHT22;60294;64.134;-21.862;2022-12-18T16:25:19;-3267.10;67.40
72338;DHT22;60294;64.134;-21.862;2022-12-18T16:27:45;-3267.00;67.10
72338;DHT22;60294;64.134;-21.862;2022-12-18T16:30:16;-3267.00;66.60
72338;DHT22;60294;64.134;-21.862;2022-12-18T16:32:43;-3266.90;67.10
72338;DHT22;60294;64.134;-21.862;2022-12-18T16:35:11;-3266.90;66.90
72338;DHT22;60294;64.134;-21.862;2022-12-18T16:37:38;-3266.90;67.20